sensor_id;sensor_type;location;lat;lon;timestamp;temperature;humidity
20911;DHT22;10615;42.702;23.314;2023-03-14T00:00:00;4.60;58.00
20911;DHT22;10615;42.702;23.314;2023-03-14T00:01:11;4.60;58.10
20911;DHT22;10615;42.702;23.314;2023-03-14T00:02:12;4.60;58.10
20911;DHT22;10615;42.702;23.314;2023-03-14T00:03:12;4.60;58.10
20911;DHT22;10615;42.702;23.314;2023-03-14T00:04:13;4.60;58.10
20911;DHT22;10615;42.702;23.314;2023-03-14T00:05:13;4.60;58.10
20911;DHT22;10615;42.702;23.314;2023-03-14T00:06:14;4.60;58.10
20911;DHT22;10615;42.702;23.314;2023-03-14T00:07:15;4.50;58.20
20911;DHT22;10615;42.702;23.314;2023-03-14T00:08:16;4.50;58.20
20911;DHT22;10615;42.702;23.314;2023-03-14T00:09:18;4.50;58.40
20911;DHT22;10615;42.702;23.314;2023-03-14T00:10:19;4.50;58.40
20911;DHT22;10615;42.702;23.314;2023-03-14T00:11:21;4.40;58.40
20911;DHT22;10615;42.702;23.314;2023-03-14T00:12:22;4.40;58.70
20911;DHT22;10615;42.702;23.314;2023-03-14T00:13:22;4.40;58.80
20911;DHT22;10615;42.702;23.314;2023-03-14T00:14:23;4.30;58.90
20911;DHT22;10615;42.702;23.314;2023-03-14T00:15:24;4.30;59.00
20911;DHT22;10615;42.702;23.314;2023-03-14T00:16:25;4.30;59.20
20911;DHT22;10615;42.702;23.314;2023-03-14T00:17:26;4.30;59.20
20911;DHT22;10615;42.702;23.314;2023-03-14T00:18:27;4.20;59.30
20911;DHT22;10615;42.702;23.314;2023-03-14T00:19:28;4.20;59.30
20911;DHT22;10615;42.702;23.314;2023-03-14T00:20:28;4.20;59.50
20911;DHT22;10615;42.702;23.314;2023-03-14T00:21:29;4.10;59.60
20911;DHT22;10615;42.702;23.314;2023-03-14T00:22:31;4.10;59.70
20911;DHT22;10615;42.702;23.314;2023-03-14T00:23:33;4.10;59.90
20911;DHT22;10615;42.702;23.314;2023-03-14T00:24:34;4.10;60.00
20911;DHT22;10615;42.702;23.314;2023-03-14T00:25:35;4.00;60.10
20911;DHT22;10615;42.702;23.314;2023-03-14T00:26:35;4.00;60.20
20911;DHT22;10615;42.702;23.314;2023-03-14T00:27:36;4.00;60.40
20911;DHT22;10615;42.702;23.314;2023-03-14T00:28:38;4.00;60.40
20911;DHT22;10615;42.702;23.314;2023-03-14T00:29:38;4.00;60.50
20911;DHT22;10615;42.702;23.314;2023-03-14T00:30:39;3.90;60.60
20911;DHT22;10615;42.702;23.314;2023-03-14T00:31:40;4.00;60.80
20911;DHT22;10615;42.702;23.314;2023-03-14T00:32:41;3.90;60.80
20911;DHT22;10615;42.702;23.314;2023-03-14T00:33:42;3.90;61.00
20911;DHT22;10615;42.702;23.314;2023-03-14T00:34:43;3.90;61.00
20911;DHT22;10615;42.702;23.314;2023-03-14T00:35:55;3.90;61.10
20911;DHT22;10615;42.702;23.314;2023-03-14T00:36:57;3.80;61.10
20911;DHT22;10615;42.702;23.314;2023-03-14T00:37:57;3.80;62.10
20911;DHT22;10615;42.702;23.314;2023-03-14T00:38:58;3.80;61.30
20911;DHT22;10615;42.702;23.314;2023-03-14T00:39:58;3.80;61.30
20911;DHT22;10615;42.702;23.314;2023-03-14T00:40:59;3.80;61.40
20911;DHT22;10615;42.702;23.314;2023-03-14T00:42:03;3.80;61.50
20911;DHT22;10615;42.702;23.314;2023-03-14T00:43:03;3.80;61.60
20911;DHT22;10615;42.702;23.314;2023-03-14T00:44:04;3.80;61.70
20911;DHT22;10615;42.702;23.314;2023-03-14T00:45:05;3.80;61.80
20911;DHT22;10615;42.702;23.314;2023-03-14T00:46:08;3.80;61.80
20911;DHT22;10615;42.702;23.314;2023-03-14T00:47:09;3.80;62.00
20911;DHT22;10615;42.702;23.314;2023-03-14T00:48:09;3.80;62.00
20911;DHT22;10615;42.702;23.314;2023-03-14T00:49:10;3.80;62.10
20911;DHT22;10615;42.702;23.314;2023-03-14T00:50:11;3.80;62.10
20911;DHT22;10615;42.702;23.314;2023-03-14T00:51:12;3.80;62.20
20911;DHT22;10615;42.702;23.314;2023-03-14T00:52:15;3.80;62.20
20911;DHT22;10615;42.702;23.314;2023-03-14T00:53:16;3.80;62.30
20911;DHT22;10615;42.702;23.314;2023-03-14T00:54:18;3.80;62.40
20911;DHT22;10615;42.702;23.314;2023-03-14T00:55:19;3.80;62.40
20911;DHT22;10615;42.702;23.314;2023-03-14T00:56:19;3.80;62.40
20911;DHT22;10615;42.702;23.314;2023-03-14T00:57:20;3.80;62.40
20911;DHT22;10615;42.702;23.314;2023-03-14T00:58:21;3.80;63.30
20911;DHT22;10615;42.702;23.314;2023-03-14T00:59:21;3.80;62.50
20911;DHT22;10615;42.702;23.314;2023-03-14T01:00:22;3.80;62.50
20911;DHT22;10615;42.702;23.314;2023-03-14T01:01:24;3.70;62.60
20911;DHT22;10615;42.702;23.314;2023-03-14T01:02:25;3.70;62.60
20911;DHT22;10615;42.702;23.314;2023-03-14T01:03:25;3.70;62.60
20911;DHT22;10615;42.702;23.314;2023-03-14T01:04:26;3.70;62.60
20911;DHT22;10615;42.702;23.314;2023-03-14T01:05:27;3.70;62.70
20911;DHT22;10615;42.702;23.314;2023-03-14T01:06:28;3.70;62.70
20911;DHT22;10615;42.702;23.314;2023-03-14T01:07:30;3.70;62.70
20911;DHT22;10615;42.702;23.314;2023-03-14T01:08:30;3.70;62.80
20911;DHT22;10615;42.702;23.314;2023-03-14T01:09:31;3.70;62.80
20911;DHT22;10615;42.702;23.314;2023-03-14T01:10:31;3.70;62.90
20911;DHT22;10615;42.702;23.314;2023-03-14T01:11:34;3.70;63.00
20911;DHT22;10615;42.702;23.314;2023-03-14T01:12:35;3.70;63.00
20911;DHT22;10615;42.702;23.314;2023-03-14T01:13:36;3.60;63.10
20911;DHT22;10615;42.702;23.314;2023-03-14T01:14:37;3.60;63.10
20911;DHT22;10615;42.702;23.314;2023-03-14T01:15:38;3.60;63.20
20911;DHT22;10615;42.702;23.314;2023-03-14T01:16:38;3.70;63.40
20911;DHT22;10615;42.702;23.314;2023-03-14T01:17:39;3.60;63.40
20911;DHT22;10615;42.702;23.314;2023-03-14T01:18:42;3.60;63.50
20911;DHT22;10615;42.702;23.314;2023-03-14T01:19:46;3.60;63.50
20911;DHT22;10615;42.702;23.314;2023-03-14T01:20:47;3.60;63.50
20911;DHT22;10615;42.702;23.314;2023-03-14T01:21:47;3.60;63.50
20911;DHT22;10615;42.702;23.314;2023-03-14T01:22:48;3.60;63.60
20911;DHT22;10615;42.702;23.314;2023-03-14T01:23:49;3.60;64.50
20911;DHT22;10615;42.702;23.314;2023-03-14T01:24:50;3.60;63.70
20911;DHT22;10615;42.702;23.314;2023-03-14T01:25:51;3.50;64.60
20911;DHT22;10615;42.702;23.314;2023-03-14T01:26:52;3.60;63.90
20911;DHT22;10615;42.702;23.314;2023-03-14T01:27:52;3.60;64.00
20911;DHT22;10615;42.702;23.314;2023-03-14T01:28:54;3.60;64.10
20911;DHT22;10615;42.702;23.314;2023-03-14T01:29:55;3.60;64.20
20911;DHT22;10615;42.702;23.314;2023-03-14T01:30:55;3.50;64.10
20911;DHT22;10615;42.702;23.314;2023-03-14T01:31:56;3.50;64.20
20911;DHT22;10615;42.702;23.314;2023-03-14T01:32:57;3.50;64.30
20911;DHT22;10615;42.702;23.314;2023-03-14T01:33:57;3.50;64.30
20911;DHT22;10615;42.702;23.314;2023-03-14T01:34:58;3.50;64.40
20911;DHT22;10615;42.702;23.314;2023-03-14T01:35:59;3.50;64.40
20911;DHT22;10615;42.702;23.314;2023-03-14T01:36:59;3.50;64.50
20911;DHT22;10615;42.702;23.314;2023-03-14T01:38:00;3.50;64.60
20911;DHT22;10615;42.702;23.314;2023-03-14T01:39:01;3.50;64.70
20911;DHT22;10615;42.702;23.314;2023-03-14T01:40:02;3.50;64.80
20911;DHT22;10615;42.702;23.314;2023-03-14T01:41:04;3.50;64.80
20911;DHT22;10615;42.702;23.314;2023-03-14T01:42:05;3.50;64.90
20911;DHT22;10615;42.702;23.314;2023-03-14T01:43:16;3.50;64.90
20911;DHT22;10615;42.702;23.314;2023-03-14T01:44:17;3.50;64.90
20911;DHT22;10615;42.702;23.314;2023-03-14T01:47:06;3.40;64.70
20911;DHT22;10615;42.702;23.314;2023-03-14T01:48:07;3.40;64.70
20911;DHT22;10615;42.702;23.314;2023-03-14T01:50:20;3.40;64.80
20911;DHT22;10615;42.702;23.314;2023-03-14T01:51:51;3.40;64.80
20911;DHT22;10615;42.702;23.314;2023-03-14T01:52:54;3.50;64.90
20911;DHT22;10615;42.702;23.314;2023-03-14T01:54:06;3.50;64.90
20911;DHT22;10615;42.702;23.314;2023-03-14T01:55:26;3.50;64.90
20911;DHT22;10615;42.702;23.314;2023-03-14T01:56:27;3.50;65.10
20911;DHT22;10615;42.702;23.314;2023-03-14T01:57:32;3.50;65.20
20911;DHT22;10615;42.702;23.314;2023-03-14T01:58:33;3.50;65.30
20911;DHT22;10615;42.702;23.314;2023-03-14T01:59:38;3.60;65.60
20911;DHT22;10615;42.702;23.314;2023-03-14T02:00:40;3.60;65.80
20911;DHT22;10615;42.702;23.314;2023-03-14T02:01:43;3.60;66.00
20911;DHT22;10615;42.702;23.314;2023-03-14T02:02:50;3.60;66.20
20911;DHT22;10615;42.702;23.314;2023-03-14T02:03:57;3.60;67.20
20911;DHT22;10615;42.702;23.314;2023-03-14T02:04:59;3.60;66.50
20911;DHT22;10615;42.702;23.314;2023-03-14T02:06:03;3.60;66.70
20911;DHT22;10615;42.702;23.314;2023-03-14T02:08:20;3.60;67.10
20911;DHT22;10615;42.702;23.314;2023-03-14T02:09:22;3.60;67.20
20911;DHT22;10615;42.702;23.314;2023-03-14T02:10:26;3.60;67.30
20911;DHT22;10615;42.702;23.314;2023-03-14T02:11:29;3.50;67.40
20911;DHT22;10615;42.702;23.314;2023-03-14T02:12:30;3.50;67.60
20911;DHT22;10615;42.702;23.314;2023-03-14T02:13:31;3.50;67.80
20911;DHT22;10615;42.702;23.314;2023-03-14T02:14:35;3.50;68.10
20911;DHT22;10615;42.702;23.314;2023-03-14T02:15:36;3.40;68.30
20911;DHT22;10615;42.702;23.314;2023-03-14T02:16:37;3.40;68.50
20911;DHT22;10615;42.702;23.314;2023-03-14T02:17:40;3.40;68.70
20911;DHT22;10615;42.702;23.314;2023-03-14T02:18:42;3.40;68.90
20911;DHT22;10615;42.702;23.314;2023-03-14T02:22:23;3.40;69.30
20911;DHT22;10615;42.702;23.314;2023-03-14T02:24:41;3.40;69.40
20911;DHT22;10615;42.702;23.314;2023-03-14T02:26:31;3.40;69.50
20911;DHT22;10615;42.702;23.314;2023-03-14T02:27:34;3.40;69.70
20911;DHT22;10615;42.702;23.314;2023-03-14T02:28:36;3.40;69.60
20911;DHT22;10615;42.702;23.314;2023-03-14T02:29:41;3.40;69.70
20911;DHT22;10615;42.702;23.314;2023-03-14T02:30:46;3.40;69.70
20911;DHT22;10615;42.702;23.314;2023-03-14T02:31:46;3.40;69.90
20911;DHT22;10615;42.702;23.314;2023-03-14T02:32:51;3.30;70.00
20911;DHT22;10615;42.702;23.314;2023-03-14T02:33:53;3.30;70.00
20911;DHT22;10615;42.702;23.314;2023-03-14T02:34:57;3.30;70.10
20911;DHT22;10615;42.702;23.314;2023-03-14T02:36:03;3.30;70.20
20911;DHT22;10615;42.702;23.314;2023-03-14T02:37:05;3.30;70.30
20911;DHT22;10615;42.702;23.314;2023-03-14T02:39:41;3.30;70.40
20911;DHT22;10615;42.702;23.314;2023-03-14T02:40:44;3.20;70.30
20911;DHT22;10615;42.702;23.314;2023-03-14T02:41:45;3.20;70.30
20911;DHT22;10615;42.702;23.314;2023-03-14T02:42:46;3.20;70.50
20911;DHT22;10615;42.702;23.314;2023-03-14T02:43:47;3.20;70.50
20911;DHT22;10615;42.702;23.314;2023-03-14T02:44:59;3.20;70.60
20911;DHT22;10615;42.702;23.314;2023-03-14T02:46:03;3.10;70.60
20911;DHT22;10615;42.702;23.314;2023-03-14T02:47:04;3.10;70.70
20911;DHT22;10615;42.702;23.314;2023-03-14T02:48:09;3.10;70.70
20911;DHT22;10615;42.702;23.314;2023-03-14T02:49:14;3.10;70.90
20911;DHT22;10615;42.702;23.314;2023-03-14T02:50:21;3.10;71.00
20911;DHT22;10615;42.702;23.314;2023-03-14T02:51:24;3.10;71.00
20911;DHT22;10615;42.702;23.314;2023-03-14T02:52:26;3.00;71.00
20911;DHT22;10615;42.702;23.314;2023-03-14T02:53:30;3.00;71.80
20911;DHT22;10615;42.702;23.314;2023-03-14T02:54:31;3.00;71.00
20911;DHT22;10615;42.702;23.314;2023-03-14T02:55:32;3.00;71.10
20911;DHT22;10615;42.702;23.314;2023-03-14T02:56:33;3.00;71.20
20911;DHT22;10615;42.702;23.314;2023-03-14T02:57:33;3.00;71.20
20911;DHT22;10615;42.702;23.314;2023-03-14T02:58:34;3.00;71.30
20911;DHT22;10615;42.702;23.314;2023-03-14T02:59:35;2.90;71.30
20911;DHT22;10615;42.702;23.314;2023-03-14T03:00:36;2.90;71.30
20911;DHT22;10615;42.702;23.314;2023-03-14T03:01:36;2.90;71.30
20911;DHT22;10615;42.702;23.314;2023-03-14T03:02:37;2.90;71.40
20911;DHT22;10615;42.702;23.314;2023-03-14T03:03:37;2.90;71.50
20911;DHT22;10615;42.702;23.314;2023-03-14T03:04:38;2.90;71.50
20911;DHT22;10615;42.702;23.314;2023-03-14T03:05:39;2.90;71.60
20911;DHT22;10615;42.702;23.314;2023-03-14T03:06:39;2.90;71.60
20911;DHT22;10615;42.702;23.314;2023-03-14T03:07:40;2.90;71.60
20911;DHT22;10615;42.702;23.314;2023-03-14T03:08:40;2.90;71.70
20911;DHT22;10615;42.702;23.314;2023-03-14T03:09:41;2.90;71.70
20911;DHT22;10615;42.702;23.314;2023-03-14T03:10:42;2.90;71.70
20911;DHT22;10615;42.702;23.314;2023-03-14T03:11:42;2.90;71.80
20911;DHT22;10615;42.702;23.314;2023-03-14T03:12:43;2.90;71.80
20911;DHT22;10615;42.702;23.314;2023-03-14T03:13:44;2.90;71.80
20911;DHT22;10615;42.702;23.314;2023-03-14T03:14:45;2.90;72.00
20911;DHT22;10615;42.702;23.314;2023-03-14T03:15:46;2.90;72.10
20911;DHT22;10615;42.702;23.314;2023-03-14T03:16:46;2.90;72.10
20911;DHT22;10615;42.702;23.314;2023-03-14T03:17:47;2.90;72.20
20911;DHT22;10615;42.702;23.314;2023-03-14T03:18:48;2.90;72.30
20911;DHT22;10615;42.702;23.314;2023-03-14T03:19:48;2.90;72.30
20911;DHT22;10615;42.702;23.314;2023-03-14T03:20:49;2.90;72.30
20911;DHT22;10615;42.702;23.314;2023-03-14T03:21:50;2.90;72.40
20911;DHT22;10615;42.702;23.314;2023-03-14T03:22:50;2.80;72.40
20911;DHT22;10615;42.702;23.314;2023-03-14T03:23:51;2.80;72.50
20911;DHT22;10615;42.702;23.314;2023-03-14T03:24:51;2.80;72.50
20911;DHT22;10615;42.702;23.314;2023-03-14T03:25:52;2.80;72.50
20911;DHT22;10615;42.702;23.314;2023-03-14T03:26:53;2.80;72.60
20911;DHT22;10615;42.702;23.314;2023-03-14T03:27:54;2.80;72.60
20911;DHT22;10615;42.702;23.314;2023-03-14T03:28:55;2.80;72.70
20911;DHT22;10615;42.702;23.314;2023-03-14T03:29:55;2.80;72.80
20911;DHT22;10615;42.702;23.314;2023-03-14T03:30:56;2.80;72.80
20911;DHT22;10615;42.702;23.314;2023-03-14T03:31:57;2.80;72.80
20911;DHT22;10615;42.702;23.314;2023-03-14T03:32:57;2.80;72.80
20911;DHT22;10615;42.702;23.314;2023-03-14T03:33:58;2.80;72.80
20911;DHT22;10615;42.702;23.314;2023-03-14T03:34:58;2.80;72.80
20911;DHT22;10615;42.702;23.314;2023-03-14T03:35:59;2.80;72.80
20911;DHT22;10615;42.702;23.314;2023-03-14T03:37:00;2.80;72.80
20911;DHT22;10615;42.702;23.314;2023-03-14T03:38:00;2.80;72.80
20911;DHT22;10615;42.702;23.314;2023-03-14T03:39:01;2.80;72.90
20911;DHT22;10615;42.702;23.314;2023-03-14T03:40:03;2.80;72.90
20911;DHT22;10615;42.702;23.314;2023-03-14T03:41:06;2.80;73.00
20911;DHT22;10615;42.702;23.314;2023-03-14T03:42:08;2.80;73.00
20911;DHT22;10615;42.702;23.314;2023-03-14T03:43:08;2.70;73.00
20911;DHT22;10615;42.702;23.314;2023-03-14T03:44:09;2.80;73.10
20911;DHT22;10615;42.702;23.314;2023-03-14T03:45:10;2.70;73.10
20911;DHT22;10615;42.702;23.314;2023-03-14T03:46:10;2.70;73.10
20911;DHT22;10615;42.702;23.314;2023-03-14T03:47:11;2.70;73.10
20911;DHT22;10615;42.702;23.314;2023-03-14T03:48:12;2.70;73.10
20911;DHT22;10615;42.702;23.314;2023-03-14T03:49:12;2.70;73.20
20911;DHT22;10615;42.702;23.314;2023-03-14T03:50:13;2.70;73.20
20911;DHT22;10615;42.702;23.314;2023-03-14T03:51:15;2.70;73.20
20911;DHT22;10615;42.702;23.314;2023-03-14T03:52:16;2.70;73.20
20911;DHT22;10615;42.702;23.314;2023-03-14T03:53:17;2.70;73.20
20911;DHT22;10615;42.702;23.314;2023-03-14T03:54:18;2.70;73.20
20911;DHT22;10615;42.702;23.314;2023-03-14T03:55:18;2.70;73.30
20911;DHT22;10615;42.702;23.314;2023-03-14T03:56:19;2.70;73.40
20911;DHT22;10615;42.702;23.314;2023-03-14T03:57:20;2.70;73.40
20911;DHT22;10615;42.702;23.314;2023-03-14T03:58:20;2.70;73.40
20911;DHT22;10615;42.702;23.314;2023-03-14T03:59:21;2.70;73.50
20911;DHT22;10615;42.702;23.314;2023-03-14T04:00:22;2.80;73.60
20911;DHT22;10615;42.702;23.314;2023-03-14T04:01:23;2.70;73.50
20911;DHT22;10615;42.702;23.314;2023-03-14T04:02:23;2.70;73.60
20911;DHT22;10615;42.702;23.314;2023-03-14T04:03:24;2.70;73.60
20911;DHT22;10615;42.702;23.314;2023-03-14T04:04:26;2.70;73.60
20911;DHT22;10615;42.702;23.314;2023-03-14T04:05:26;2.80;73.70
20911;DHT22;10615;42.702;23.314;2023-03-14T04:06:27;2.70;73.60
20911;DHT22;10615;42.702;23.314;2023-03-14T04:07:28;2.70;73.60
20911;DHT22;10615;42.702;23.314;2023-03-14T04:08:29;2.70;73.70
20911;DHT22;10615;42.702;23.314;2023-03-14T04:09:30;2.70;73.70
20911;DHT22;10615;42.702;23.314;2023-03-14T04:10:34;2.70;73.70
20911;DHT22;10615;42.702;23.314;2023-03-14T04:11:35;2.70;73.90
20911;DHT22;10615;42.702;23.314;2023-03-14T04:12:36;2.70;73.90
20911;DHT22;10615;42.702;23.314;2023-03-14T04:13:36;2.70;74.00
20911;DHT22;10615;42.702;23.314;2023-03-14T04:14:37;2.70;74.00
20911;DHT22;10615;42.702;23.314;2023-03-14T04:15:38;2.70;74.90
20911;DHT22;10615;42.702;23.314;2023-03-14T04:16:38;2.70;74.20
20911;DHT22;10615;42.702;23.314;2023-03-14T04:17:39;2.60;74.20
20911;DHT22;10615;42.702;23.314;2023-03-14T04:18:39;2.60;74.20
20911;DHT22;10615;42.702;23.314;2023-03-14T04:19:40;2.60;74.30
20911;DHT22;10615;42.702;23.314;2023-03-14T04:20:42;2.60;75.20
20911;DHT22;10615;42.702;23.314;2023-03-14T04:21:43;2.60;74.30
20911;DHT22;10615;42.702;23.314;2023-03-14T04:22:47;2.60;74.40
20911;DHT22;10615;42.702;23.314;2023-03-14T04:23:47;2.70;74.50
20911;DHT22;10615;42.702;23.314;2023-03-14T04:24:48;2.60;74.50
20911;DHT22;10615;42.702;23.314;2023-03-14T04:25:50;2.60;74.50
20911;DHT22;10615;42.702;23.314;2023-03-14T04:26:50;2.60;74.50
20911;DHT22;10615;42.702;23.314;2023-03-14T04:27:51;2.60;74.60
20911;DHT22;10615;42.702;23.314;2023-03-14T04:28:52;2.60;74.60
20911;DHT22;10615;42.702;23.314;2023-03-14T04:29:53;2.60;74.60
20911;DHT22;10615;42.702;23.314;2023-03-14T04:30:53;2.60;74.60
20911;DHT22;10615;42.702;23.314;2023-03-14T04:31:54;2.60;74.70
20911;DHT22;10615;42.702;23.314;2023-03-14T04:32:55;2.60;74.70
20911;DHT22;10615;42.702;23.314;2023-03-14T04:33:55;2.60;74.80
20911;DHT22;10615;42.702;23.314;2023-03-14T04:34:56;2.60;74.80
20911;DHT22;10615;42.702;23.314;2023-03-14T04:35:56;2.60;74.70
20911;DHT22;10615;42.702;23.314;2023-03-14T04:36:57;2.70;74.70
20911;DHT22;10615;42.702;23.314;2023-03-14T04:37:58;2.70;74.60
20911;DHT22;10615;42.702;23.314;2023-03-14T04:38:59;2.60;74.50
20911;DHT22;10615;42.702;23.314;2023-03-14T04:40:00;2.70;74.60
20911;DHT22;10615;42.702;23.314;2023-03-14T04:41:01;2.70;74.40
20911;DHT22;10615;42.702;23.314;2023-03-14T04:42:02;2.60;74.30
20911;DHT22;10615;42.702;23.314;2023-03-14T04:43:03;2.60;74.30
20911;DHT22;10615;42.702;23.314;2023-03-14T04:44:03;2.70;74.30
20911;DHT22;10615;42.702;23.314;2023-03-14T04:45:05;2.70;74.30
20911;DHT22;10615;42.702;23.314;2023-03-14T04:46:06;2.70;74.30
20911;DHT22;10615;42.702;23.314;2023-03-14T04:47:07;2.70;74.30
20911;DHT22;10615;42.702;23.314;2023-03-14T04:48:07;2.70;74.30
20911;DHT22;10615;42.702;23.314;2023-03-14T04:49:08;2.80;74.40
20911;DHT22;10615;42.702;23.314;2023-03-14T04:50:09;2.80;74.30
20911;DHT22;10615;42.702;23.314;2023-03-14T04:51:10;2.80;74.30
20911;DHT22;10615;42.702;23.314;2023-03-14T04:52:11;2.90;74.20
20911;DHT22;10615;42.702;23.314;2023-03-14T04:53:12;2.90;74.10
20911;DHT22;10615;42.702;23.314;2023-03-14T04:54:12;2.90;74.00
20911;DHT22;10615;42.702;23.314;2023-03-14T04:55:13;3.10;74.00
20911;DHT22;10615;42.702;23.314;2023-03-14T04:56:14;3.50;74.00
20911;DHT22;10615;42.702;23.314;2023-03-14T04:57:14;3.90;73.60
20911;DHT22;10615;42.702;23.314;2023-03-14T04:58:15;4.30;72.90
20911;DHT22;10615;42.702;23.314;2023-03-14T04:59:15;4.70;71.80
20911;DHT22;10615;42.702;23.314;2023-03-14T05:00:16;5.00;70.60
20911;DHT22;10615;42.702;23.314;2023-03-14T05:01:20;5.30;69.50
20911;DHT22;10615;42.702;23.314;2023-03-14T05:02:21;5.50;68.50
20911;DHT22;10615;42.702;23.314;2023-03-14T05:03:21;5.60;67.50
20911;DHT22;10615;42.702;23.314;2023-03-14T05:04:22;5.80;66.90
20911;DHT22;10615;42.702;23.314;2023-03-14T05:05:23;5.90;66.10
20911;DHT22;10615;42.702;23.314;2023-03-14T05:06:23;5.90;65.40
20911;DHT22;10615;42.702;23.314;2023-03-14T05:07:24;5.90;64.90
20911;DHT22;10615;42.702;23.314;2023-03-14T05:08:25;5.80;64.50
20911;DHT22;10615;42.702;23.314;2023-03-14T05:09:26;5.60;64.30
20911;DHT22;10615;42.702;23.314;2023-03-14T05:10:27;5.50;64.50
20911;DHT22;10615;42.702;23.314;2023-03-14T05:11:27;5.40;64.60
20911;DHT22;10615;42.702;23.314;2023-03-14T05:12:29;5.30;64.80
20911;DHT22;10615;42.702;23.314;2023-03-14T05:13:33;5.30;65.00
20911;DHT22;10615;42.702;23.314;2023-03-14T05:14:34;5.60;65.30
20911;DHT22;10615;42.702;23.314;2023-03-14T05:15:34;6.10;65.20
20911;DHT22;10615;42.702;23.314;2023-03-14T05:16:35;6.80;64.70
20911;DHT22;10615;42.702;23.314;2023-03-14T05:17:36;7.50;63.60
20911;DHT22;10615;42.702;23.314;2023-03-14T05:18:37;8.20;62.30
20911;DHT22;10615;42.702;23.314;2023-03-14T05:19:38;8.90;60.40
20911;DHT22;10615;42.702;23.314;2023-03-14T05:20:38;9.70;58.80
20911;DHT22;10615;42.702;23.314;2023-03-14T05:21:39;10.30;57.20
20911;DHT22;10615;42.702;23.314;2023-03-14T05:22:40;10.90;55.60
20911;DHT22;10615;42.702;23.314;2023-03-14T05:23:40;11.50;54.10
20911;DHT22;10615;42.702;23.314;2023-03-14T05:24:41;12.00;52.60
20911;DHT22;10615;42.702;23.314;2023-03-14T05:25:43;12.50;51.20
20911;DHT22;10615;42.702;23.314;2023-03-14T05:26:44;13.00;50.00
20911;DHT22;10615;42.702;23.314;2023-03-14T05:27:45;13.40;48.90
20911;DHT22;10615;42.702;23.314;2023-03-14T05:28:46;13.60;47.90
20911;DHT22;10615;42.702;23.314;2023-03-14T05:29:47;13.80;47.10
20911;DHT22;10615;42.702;23.314;2023-03-14T05:30:48;14.10;46.50
20911;DHT22;10615;42.702;23.314;2023-03-14T05:31:49;14.40;45.80
20911;DHT22;10615;42.702;23.314;2023-03-14T05:32:50;14.70;45.20
20911;DHT22;10615;42.702;23.314;2023-03-14T05:33:50;15.10;44.80
20911;DHT22;10615;42.702;23.314;2023-03-14T05:34:51;15.70;44.40
20911;DHT22;10615;42.702;23.314;2023-03-14T05:35:52;16.10;43.40
20911;DHT22;10615;42.702;23.314;2023-03-14T05:36:52;16.60;42.60
20911;DHT22;10615;42.702;23.314;2023-03-14T05:37:53;17.10;42.10
20911;DHT22;10615;42.702;23.314;2023-03-14T05:38:54;17.50;41.30
20911;DHT22;10615;42.702;23.314;2023-03-14T05:39:54;17.80;40.20
20911;DHT22;10615;42.702;23.314;2023-03-14T05:40:55;18.10;39.30
20911;DHT22;10615;42.702;23.314;2023-03-14T05:41:55;18.20;38.50
20911;DHT22;10615;42.702;23.314;2023-03-14T05:42:56;18.50;37.80
20911;DHT22;10615;42.702;23.314;2023-03-14T05:43:57;18.90;37.40
20911;DHT22;10615;42.702;23.314;2023-03-14T05:44:58;19.30;36.90
20911;DHT22;10615;42.702;23.314;2023-03-14T05:45:58;19.60;36.30
20911;DHT22;10615;42.702;23.314;2023-03-14T05:46:59;19.90;35.60
20911;DHT22;10615;42.702;23.314;2023-03-14T05:47:59;20.00;35.00
20911;DHT22;10615;42.702;23.314;2023-03-14T05:49:00;20.00;34.40
20911;DHT22;10615;42.702;23.314;2023-03-14T05:50:01;20.30;34.30
20911;DHT22;10615;42.702;23.314;2023-03-14T05:51:01;20.60;34.00
20911;DHT22;10615;42.702;23.314;2023-03-14T05:52:02;21.00;33.60
20911;DHT22;10615;42.702;23.314;2023-03-14T05:53:03;21.20;32.90
20911;DHT22;10615;42.702;23.314;2023-03-14T05:54:04;21.30;32.40
20911;DHT22;10615;42.702;23.314;2023-03-14T05:55:05;21.50;31.80
20911;DHT22;10615;42.702;23.314;2023-03-14T05:56:06;21.50;31.20
20911;DHT22;10615;42.702;23.314;2023-03-14T05:57:07;21.40;30.90
20911;DHT22;10615;42.702;23.314;2023-03-14T05:58:07;21.30;30.60
20911;DHT22;10615;42.702;23.314;2023-03-14T05:59:08;21.00;30.40
20911;DHT22;10615;42.702;23.314;2023-03-14T06:00:10;20.80;30.40
20911;DHT22;10615;42.702;23.314;2023-03-14T06:01:11;20.80;30.70
20911;DHT22;10615;42.702;23.314;2023-03-14T06:02:12;20.90;30.80
20911;DHT22;10615;42.702;23.314;2023-03-14T06:03:13;21.20;30.80
20911;DHT22;10615;42.702;23.314;2023-03-14T06:04:13;21.60;30.60
20911;DHT22;10615;42.702;23.314;2023-03-14T06:05:14;22.00;30.20
20911;DHT22;10615;42.702;23.314;2023-03-14T06:06:15;22.40;29.90
20911;DHT22;10615;42.702;23.314;2023-03-14T06:07:17;22.60;29.50
20911;DHT22;10615;42.702;23.314;2023-03-14T06:08:17;22.80;29.20
20911;DHT22;10615;42.702;23.314;2023-03-14T06:09:18;23.00;29.20
20911;DHT22;10615;42.702;23.314;2023-03-14T06:10:20;22.90;28.90
20911;DHT22;10615;42.702;23.314;2023-03-14T06:11:21;22.50;28.80
20911;DHT22;10615;42.702;23.314;2023-03-14T06:12:21;21.80;28.80
20911;DHT22;10615;42.702;23.314;2023-03-14T06:13:22;21.20;29.10
20911;DHT22;10615;42.702;23.314;2023-03-14T06:14:23;20.90;29.70
20911;DHT22;10615;42.702;23.314;2023-03-14T06:15:23;20.70;30.00
20911;DHT22;10615;42.702;23.314;2023-03-14T06:16:24;20.60;30.40
20911;DHT22;10615;42.702;23.314;2023-03-14T06:17:25;20.80;30.60
20911;DHT22;10615;42.702;23.314;2023-03-14T06:18:25;21.10;30.80
20911;DHT22;10615;42.702;23.314;2023-03-14T06:19:26;21.90;30.80
20911;DHT22;10615;42.702;23.314;2023-03-14T06:20:27;22.90;30.40
20911;DHT22;10615;42.702;23.314;2023-03-14T06:21:27;23.80;29.60
20911;DHT22;10615;42.702;23.314;2023-03-14T06:22:28;24.10;28.60
20911;DHT22;10615;42.702;23.314;2023-03-14T06:23:29;24.00;28.10
20911;DHT22;10615;42.702;23.314;2023-03-14T06:24:32;23.90;27.80
20911;DHT22;10615;42.702;23.314;2023-03-14T06:25:33;23.90;27.60
20911;DHT22;10615;42.702;23.314;2023-03-14T06:26:34;24.00;27.40
20911;DHT22;10615;42.702;23.314;2023-03-14T06:27:35;24.50;27.40
20911;DHT22;10615;42.702;23.314;2023-03-14T06:28:35;25.10;27.20
20911;DHT22;10615;42.702;23.314;2023-03-14T06:29:36;25.80;27.00
20911;DHT22;10615;42.702;23.314;2023-03-14T06:30:37;26.60;26.50
20911;DHT22;10615;42.702;23.314;2023-03-14T06:31:37;27.40;26.10
20911;DHT22;10615;42.702;23.314;2023-03-14T06:32:38;28.10;25.50
20911;DHT22;10615;42.702;23.314;2023-03-14T06:33:39;28.50;24.80
20911;DHT22;10615;42.702;23.314;2023-03-14T06:34:39;28.60;24.30
20911;DHT22;10615;42.702;23.314;2023-03-14T06:35:41;28.40;24.00
20911;DHT22;10615;42.702;23.314;2023-03-14T06:36:41;27.90;23.70